createdAt,value
2024-02-13T00:00:48.605Z,98966.66
2024-02-13T00:03:15.937Z,98970.78
2024-02-13T00:05:44.549Z,98979.22
2024-02-13T00:08:12.226Z,98974.13
2024-02-13T00:10:39.530Z,98969.91
2024-02-13T00:13:06.542Z,98960.63
2024-02-13T00:15:33.499Z,98965.69
2024-02-13T00:18:01.422Z,98966.47
2024-02-13T00:20:29.701Z,98964.72
2024-02-13T00:22:57.994Z,98966.34
2024-02-13T00:25:27.138Z,98971.34
2024-02-13T00:27:54.032Z,98958.78
2024-02-13T00:30:20.989Z,98962.16
2024-02-13T00:33:08.692Z,98968.03
2024-02-13T00:35:55.570Z,98978.97
2024-02-13T00:38:22.871Z,98980.56
2024-02-13T00:40:50.041Z,98989.00
2024-02-13T00:43:20.828Z,98989.81
2024-02-13T00:45:48.311Z,98987.31
2024-02-13T00:48:23.130Z,98994.09
2024-02-13T00:50:51.067Z,98999.94
2024-02-13T00:53:18.041Z,98999.88
2024-02-13T00:55:47.002Z,99000.78
2024-02-13T00:58:14.016Z,98997.41
2024-02-13T01:00:41.159Z,99008.41
2024-02-13T01:03:10.754Z,99008.38
2024-02-13T01:05:42.204Z,99007.44
2024-02-13T01:08:14.800Z,99008.31
2024-02-13T01:10:43.445Z,99015.94
2024-02-13T01:13:10.678Z,99019.31
2024-02-13T01:15:38.061Z,99011.84
2024-02-13T01:18:06.258Z,99021.28
2024-02-13T01:20:34.511Z,99009.53
2024-02-13T01:23:01.594Z,99011.16
2024-02-13T01:25:30.089Z,99020.38
2024-02-13T01:27:58.432Z,99019.44
2024-02-13T01:30:25.351Z,99019.38
2024-02-13T01:32:52.278Z,99020.06
2024-02-13T01:35:20.236Z,99025.88
2024-02-13T01:37:50.973Z,99022.38
2024-02-13T01:40:18.544Z,99026.38
2024-02-13T01:42:51.501Z,99035.66
2024-02-13T01:45:19.174Z,99035.41
2024-02-13T01:48:06.291Z,99037.91
2024-02-13T01:50:37.574Z,99045.53
2024-02-13T01:53:06.096Z,99052.13
2024-02-13T01:55:34.152Z,99060.66
2024-02-13T01:58:03.556Z,99053.06
2024-02-13T02:00:33.514Z,99058.00
2024-02-13T02:03:02.356Z,99061.88
2024-02-13T02:05:29.330Z,99067.63
2024-02-13T02:08:16.924Z,99070.19
2024-02-13T02:10:45.706Z,99075.88
2024-02-13T02:13:16.142Z,99079.09
2024-02-13T02:15:59.354Z,99081.53
2024-02-13T02:18:28.607Z,99087.75
2024-02-13T02:20:55.756Z,99090.38
2024-02-13T02:23:23.750Z,99098.56
2024-02-13T02:25:56.163Z,99105.97
2024-02-13T02:28:44.486Z,99100.84
2024-02-13T02:31:19.032Z,99112.66
2024-02-13T02:33:47.892Z,99112.75
2024-02-13T02:36:15.345Z,99109.44
2024-02-13T02:38:42.997Z,99106.84
2024-02-13T02:41:10.216Z,99111.91
2024-02-13T02:43:39.105Z,99105.97
2024-02-13T02:46:06.566Z,99104.13
2024-02-13T02:48:34.415Z,99107.44
2024-02-13T02:51:01.688Z,99106.59
2024-02-13T02:53:28.918Z,99104.00
2024-02-13T02:55:55.926Z,99099.63
2024-02-13T02:58:23.027Z,99102.13
2024-02-13T03:00:50.516Z,99116.38
2024-02-13T03:03:22.426Z,99117.19
2024-02-13T03:05:51.739Z,99122.25
2024-02-13T03:08:18.882Z,99120.50
2024-02-13T03:10:45.977Z,99126.31
2024-02-13T03:13:14.784Z,99122.72
2024-02-13T03:15:42.046Z,99126.78
2024-02-13T03:18:12.187Z,99131.06
2024-02-13T03:20:40.804Z,99132.28
2024-02-13T03:23:07.925Z,99134.03
2024-02-13T03:25:34.974Z,99136.50
2024-02-13T03:28:21.732Z,99134.91
2024-02-13T03:30:48.669Z,99127.22
2024-02-13T03:33:15.819Z,99139.69
2024-02-13T03:35:42.820Z,99138.75
2024-02-13T03:38:09.877Z,99142.00
2024-02-13T03:40:37.003Z,99146.94
2024-02-13T03:43:04.056Z,99146.84
2024-02-13T03:45:30.974Z,99149.28
2024-02-13T03:48:18.082Z,99145.81
2024-02-13T03:50:45.218Z,99149.13
2024-02-13T03:53:14.401Z,99164.16
2024-02-13T03:55:42.064Z,99171.69
2024-02-13T03:58:09.285Z,99177.56
2024-02-13T04:00:38.377Z,99175.72
2024-02-13T04:03:05.441Z,99187.75
2024-02-13T04:05:38.185Z,99181.88
2024-02-13T04:08:07.539Z,99186.16
2024-02-13T04:10:35.799Z,99200.69
2024-02-13T04:13:12.708Z,99199.91
2024-02-13T04:15:40.402Z,99201.63
2024-02-13T04:18:09.194Z,99202.56
2024-02-13T04:20:41.237Z,99205.97
2024-02-13T04:23:09.454Z,99206.09
2024-02-13T04:25:37.125Z,99211.22
2024-02-13T04:28:05.051Z,99215.59
2024-02-13T04:30:32.933Z,99210.44
2024-02-13T04:33:00.048Z,99218.13
2024-02-13T04:35:27.101Z,99218.03
2024-02-13T04:37:54.701Z,99222.28
2024-02-13T04:40:21.696Z,99222.28
2024-02-13T04:43:08.526Z,99223.88
2024-02-13T04:45:38.339Z,99224.63
2024-02-13T04:48:05.805Z,99244.81
2024-02-13T04:50:32.880Z,99242.28
2024-02-13T04:52:59.789Z,99250.81
2024-02-13T04:55:26.665Z,99249.88
2024-02-13T04:57:53.592Z,99255.88
2024-02-13T05:00:25.988Z,99260.06
2024-02-13T05:03:04.471Z,99272.81
2024-02-13T05:05:50.114Z,99279.59
2024-02-13T05:08:17.627Z,99273.81
2024-02-13T05:10:44.585Z,99283.81
2024-02-13T05:13:17.009Z,99282.94
2024-02-13T05:15:44.088Z,99292.19
2024-02-13T05:18:11.213Z,99295.59
2024-02-13T05:20:38.344Z,99295.69
2024-02-13T05:23:05.646Z,99292.25
2024-02-13T05:25:33.461Z,99294.94
2024-02-13T05:28:01.476Z,99301.75
2024-02-13T05:30:28.501Z,99311.00
2024-02-13T05:32:55.457Z,99315.94
2024-02-13T05:35:22.362Z,99316.63
2024-02-13T05:37:52.158Z,99331.66
2024-02-13T05:40:19.546Z,99329.09
2024-02-13T05:42:46.647Z,99333.25
2024-02-13T05:45:13.481Z,99333.25
2024-02-13T05:47:58.309Z,99340.72
2024-02-13T05:50:25.578Z,99342.28
2024-02-13T05:52:53.998Z,99349.03
2024-02-13T05:55:20.929Z,99358.44
2024-02-13T05:57:47.807Z,99353.50
2024-02-13T06:00:16.225Z,99360.16
2024-02-13T06:02:43.992Z,99369.19
2024-02-13T06:05:15.906Z,99374.75
2024-02-13T06:07:44.683Z,99380.47
2024-02-13T06:10:12.620Z,99391.22
2024-02-13T06:12:40.403Z,99397.88
2024-02-13T06:15:09.896Z,99400.41
2024-02-13T06:17:41.485Z,99406.09
2024-02-13T06:20:09.644Z,99409.25
2024-02-13T06:22:36.945Z,99415.91
2024-02-13T06:25:05.963Z,99417.97
2024-02-13T06:27:37.124Z,99417.97
2024-02-13T06:30:04.991Z,99418.81
2024-02-13T06:32:43.184Z,99420.56
2024-02-13T06:35:10.263Z,99420.66
2024-02-13T06:37:59.510Z,99424.91
2024-02-13T06:40:26.670Z,99428.25
2024-02-13T06:42:53.550Z,99427.44
2024-02-13T06:45:20.456Z,99431.84
2024-02-13T06:47:47.406Z,99430.13
2024-02-13T06:50:14.664Z,99430.13
2024-02-13T06:52:43.023Z,99445.31
2024-02-13T06:55:10.438Z,99450.38
2024-02-13T06:57:50.814Z,99443.72
2024-02-13T07:00:18.419Z,99443.91
2024-02-13T07:02:45.577Z,99447.53
2024-02-13T07:05:13.984Z,99451.00
2024-02-13T07:07:47.230Z,99453.47
2024-02-13T07:10:17.513Z,99462.78
2024-02-13T07:13:04.851Z,99454.50
2024-02-13T07:15:32.018Z,99471.41
2024-02-13T07:18:01.356Z,99468.16
2024-02-13T07:20:30.279Z,99465.06
2024-02-13T07:22:57.758Z,99460.31
2024-02-13T07:25:24.993Z,99465.69
2024-02-13T07:27:52.760Z,99460.91
2024-02-13T07:30:20.179Z,99458.63
2024-02-13T07:32:48.086Z,99459.66
2024-02-13T07:35:16.251Z,99460.84
2024-02-13T07:37:59.810Z,99462.91
2024-02-13T07:40:27.614Z,99472.44
2024-02-13T07:42:54.758Z,99472.72
2024-02-13T07:45:22.480Z,99479.66
2024-02-13T07:48:07.476Z,99477.94
2024-02-13T07:50:36.436Z,99481.25
2024-02-13T07:53:05.874Z,99477.09
2024-02-13T07:55:33.267Z,99488.06
2024-02-13T07:58:00.673Z,99480.69
2024-02-13T08:00:30.334Z,99475.69
2024-02-13T08:02:57.423Z,99478.97
2024-02-13T08:05:24.568Z,99484.72
2024-02-13T08:07:51.708Z,99490.63
2024-02-13T08:10:19.017Z,99491.41
2024-02-13T08:12:46.628Z,99494.59
2024-02-13T08:15:13.636Z,99492.81
2024-02-13T08:17:40.588Z,99497.19
2024-02-13T08:20:10.160Z,99490.53
2024-02-13T08:22:37.400Z,99488.78
2024-02-13T08:25:05.527Z,99487.63
2024-02-13T08:27:36.147Z,99497.91
2024-02-13T08:30:03.527Z,99492.13
2024-02-13T08:32:39.300Z,99493.31
2024-02-13T08:35:07.235Z,99506.03
2024-02-13T08:37:37.541Z,99498.59
2024-02-13T08:40:07.068Z,99505.47
2024-02-13T08:42:36.036Z,99514.59
2024-02-13T08:45:05.095Z,99515.13
2024-02-13T08:47:51.977Z,99523.72
2024-02-13T08:50:19.231Z,99518.06
2024-02-13T08:52:49.790Z,99520.91
2024-02-13T08:55:16.719Z,99517.34
2024-02-13T08:57:43.855Z,99519.09
2024-02-13T09:00:11.680Z,99527.06
2024-02-13T09:03:00.166Z,99531.47
2024-02-13T09:05:28.000Z,99546.75
2024-02-13T09:07:55.117Z,99535.84
2024-02-13T09:10:22.474Z,99535.34
2024-02-13T09:12:49.691Z,99540.69
2024-02-13T09:15:17.127Z,99534.03
2024-02-13T09:17:45.840Z,99538.66
2024-02-13T09:20:17.159Z,99536.94
2024-02-13T09:22:45.953Z,99546.34
2024-02-13T09:25:14.219Z,99540.28
2024-02-13T09:27:41.937Z,99553.03
2024-02-13T09:30:11.946Z,99545.69
2024-02-13T09:32:39.141Z,99560.13
2024-02-13T09:35:08.460Z,99556.94
2024-02-13T09:37:51.240Z,99567.09
2024-02-13T09:40:19.334Z,99561.22
2024-02-13T09:42:47.954Z,99565.47
2024-02-13T09:45:15.422Z,99563.91
2024-02-13T09:47:43.464Z,99566.56
2024-02-13T09:50:15.397Z,99571.72
2024-02-13T09:52:47.541Z,99568.84
2024-02-13T09:55:19.376Z,99581.53
2024-02-13T09:57:49.405Z,99587.09
2024-02-13T10:00:19.047Z,99579.34
2024-02-13T10:02:53.186Z,99583.63
2024-02-13T10:05:22.349Z,99590.25
2024-02-13T10:07:49.525Z,99595.34
2024-02-13T10:10:16.875Z,99598.84
2024-02-13T10:12:59.573Z,99599.97
2024-02-13T10:15:44.094Z,99603.19
2024-02-13T10:18:15.191Z,99614.06
2024-02-13T10:20:43.157Z,99610.88
2024-02-13T10:23:15.293Z,99615.13
2024-02-13T10:25:44.943Z,99609.13
2024-02-13T10:28:14.936Z,99616.63
2024-02-13T10:30:41.884Z,99614.06
2024-02-13T10:33:09.365Z,99609.00
2024-02-13T10:35:37.185Z,99611.53
2024-02-13T10:38:04.728Z,99612.22
2024-02-13T10:40:31.938Z,99618.81
2024-02-13T10:42:59.519Z,99620.41
2024-02-13T10:45:31.756Z,99628.78
2024-02-13T10:48:26.752Z,99641.16
2024-02-13T10:50:54.911Z,99630.50
2024-02-13T10:53:22.537Z,99644.34
2024-02-13T10:55:56.164Z,99642.16
2024-02-13T10:58:28.544Z,99641.31
2024-02-13T11:01:00.657Z,99641.47
2024-02-13T11:03:28.776Z,99650.78
2024-02-13T11:05:55.987Z,99653.03
2024-02-13T11:08:23.045Z,99647.72
2024-02-13T11:10:51.193Z,99646.72
2024-02-13T11:13:21.820Z,99645.78
2024-02-13T11:15:48.875Z,99646.72
2024-02-13T11:18:37.536Z,99641.81
2024-02-13T11:21:10.189Z,99639.72
2024-02-13T11:24:01.556Z,99647.56
2024-02-13T11:26:39.268Z,99640.03
2024-02-13T11:29:13.831Z,99644.78
2024-02-13T11:31:41.597Z,99635.63
2024-02-13T11:34:11.840Z,99647.38
2024-02-13T11:36:53.341Z,99653.69
2024-02-13T11:39:20.492Z,99650.06
2024-02-13T11:41:58.528Z,99646.34
2024-02-13T11:44:25.703Z,99647.53
2024-02-13T11:46:54.456Z,99640.09
2024-02-13T11:49:22.323Z,99645.16
2024-02-13T11:51:49.577Z,99644.28
2024-02-13T11:54:16.498Z,99641.97
2024-02-13T11:56:43.516Z,99645.59
2024-02-13T11:59:12.270Z,99651.41
2024-02-13T12:01:39.544Z,99643.00
2024-02-13T12:04:28.218Z,99649.66
2024-02-13T12:06:57.005Z,99657.84
2024-02-13T12:09:26.836Z,99663.38
2024-02-13T12:11:54.286Z,99659.75
2024-02-13T12:14:21.577Z,99667.84
2024-02-13T12:16:48.988Z,99667.38
2024-02-13T12:19:18.268Z,99668.66
2024-02-13T12:21:48.674Z,99674.09
2024-02-13T12:24:17.519Z,99673.16
2024-02-13T12:26:45.230Z,99666.63
2024-02-13T12:29:20.539Z,99670.13
2024-02-13T12:31:48.870Z,99659.28
2024-02-13T12:34:17.740Z,99669.16
2024-02-13T12:36:45.596Z,99667.34
2024-02-13T12:39:21.623Z,99669.09
2024-02-13T12:41:52.811Z,99668.06
2024-02-13T12:44:21.940Z,99668.47
2024-02-13T12:46:53.554Z,99673.19
2024-02-13T12:49:24.434Z,99675.84
2024-02-13T12:51:52.010Z,99672.19
2024-02-13T12:54:20.444Z,99675.19
2024-02-13T12:56:47.921Z,99663.75
2024-02-13T12:59:15.109Z,99676.25
2024-02-13T13:01:46.474Z,99678.00
2024-02-13T13:04:15.426Z,99684.44
2024-02-13T13:06:48.494Z,99683.59
2024-02-13T13:09:23.947Z,99685.16
2024-02-13T13:11:55.525Z,99689.38
2024-02-13T13:14:22.834Z,99690.91
2024-02-13T13:16:50.353Z,99691.72
2024-02-13T13:19:19.175Z,99701.56
2024-02-13T13:21:46.354Z,99707.16
2024-02-13T13:24:13.375Z,99715.56
2024-02-13T13:26:42.945Z,99712.22
2024-02-13T13:29:10.674Z,99724.25
2024-02-13T13:31:44.344Z,99719.19
2024-02-13T13:34:12.776Z,99722.16
2024-02-13T13:36:43.158Z,99731.00
2024-02-13T13:39:10.574Z,99733.00
2024-02-13T13:41:42.069Z,99740.31
2024-02-13T13:44:14.711Z,99741.78
2024-02-13T13:46:42.635Z,99743.97
2024-02-13T13:49:10.667Z,99743.41
2024-02-13T13:51:40.585Z,99743.06
2024-02-13T13:54:07.788Z,99747.91
2024-02-13T13:56:34.947Z,99751.25
2024-02-13T13:59:02.024Z,99757.88
2024-02-13T14:01:30.442Z,99757.69
2024-02-13T14:03:57.412Z,99764.88
2024-02-13T14:06:24.875Z,99761.81
2024-02-13T14:08:51.968Z,99770.03
2024-02-13T14:11:19.102Z,99776.66
2024-02-13T14:13:47.388Z,99782.47
2024-02-13T14:16:15.929Z,99778.88
2024-02-13T14:18:44.835Z,99788.63
2024-02-13T14:21:11.976Z,99790.84
2024-02-13T14:23:39.147Z,99790.50
2024-02-13T14:26:06.025Z,99800.19
2024-02-13T14:28:33.284Z,99798.97
2024-02-13T14:31:00.803Z,99807.81
2024-02-13T14:33:30.883Z,99807.59
2024-02-13T14:35:58.390Z,99805.88
2024-02-13T14:38:27.431Z,99808.97
2024-02-13T14:40:54.841Z,99808.78
2024-02-13T14:43:22.035Z,99806.25
2024-02-13T14:45:52.161Z,99817.34
2024-02-13T14:48:19.506Z,99805.69
2024-02-13T14:50:48.469Z,99810.94
2024-02-13T14:53:21.610Z,99818.41
2024-02-13T14:55:49.030Z,99819.38
2024-02-13T14:58:23.164Z,99819.06
2024-02-13T15:00:58.126Z,99825.28
2024-02-13T15:03:26.337Z,99832.47
2024-02-13T15:05:54.670Z,99840.25
2024-02-13T15:08:23.547Z,99834.81
2024-02-13T15:10:50.967Z,99841.31
2024-02-13T15:13:20.199Z,99840.03
2024-02-13T15:15:52.414Z,99841.78
2024-02-13T15:18:40.083Z,99843.94
2024-02-13T15:21:07.347Z,99845.47
2024-02-13T15:23:35.536Z,99856.72
2024-02-13T15:26:02.612Z,99855.38
2024-02-13T15:28:30.805Z,99856.13
2024-02-13T15:30:58.062Z,99866.13
2024-02-13T15:33:36.998Z,99864.28
2024-02-13T15:36:06.912Z,99870.47
2024-02-13T15:38:54.252Z,99869.13
2024-02-13T15:41:39.748Z,99872.16
2024-02-13T15:44:25.595Z,99877.72
2024-02-13T15:47:08.997Z,99884.66
2024-02-13T15:49:37.029Z,99890.75
2024-02-13T15:52:07.128Z,99898.56
2024-02-13T15:54:36.813Z,99904.13
2024-02-13T15:57:05.989Z,99903.16
2024-02-13T15:59:33.103Z,99902.19
2024-02-13T16:02:01.102Z,99905.47
2024-02-13T16:04:30.035Z,99912.03
2024-02-13T16:06:59.229Z,99920.38
2024-02-13T16:09:29.094Z,99917.75
2024-02-13T16:11:58.985Z,99925.41
2024-02-13T16:14:26.523Z,99928.50
2024-02-13T16:16:53.550Z,99936.16
2024-02-13T16:19:20.539Z,99947.22
2024-02-13T16:21:47.657Z,99941.41
2024-02-13T16:24:14.564Z,99940.53
2024-02-13T16:26:41.703Z,99952.16
2024-02-13T16:29:08.703Z,99949.63
2024-02-13T16:31:36.118Z,99943.63
2024-02-13T16:34:03.313Z,99957.44
2024-02-13T16:36:30.451Z,99957.19
2024-02-13T16:38:57.434Z,99961.38
2024-02-13T16:41:24.840Z,99970.34
2024-02-13T16:43:52.063Z,99962.25
2024-02-13T16:46:21.240Z,99960.28
2024-02-13T16:48:54.378Z,99960.50
2024-02-13T16:51:22.455Z,99966.50
2024-02-13T16:53:49.667Z,99958.09
2024-02-13T16:56:18.288Z,99965.66
2024-02-13T16:58:45.398Z,99966.50
2024-02-13T17:01:12.413Z,99973.84
2024-02-13T17:03:39.620Z,99975.63
2024-02-13T17:06:09.536Z,99980.88
2024-02-13T17:08:36.896Z,99982.84
2024-02-13T17:11:04.359Z,99979.44
2024-02-13T17:13:31.318Z,99981.06
2024-02-13T17:15:59.035Z,99980.88
2024-02-13T17:18:26.543Z,99979.91
2024-02-13T17:20:54.711Z,99986.56
2024-02-13T17:23:22.170Z,99987.44
2024-02-13T17:25:51.053Z,100005.94
2024-02-13T17:28:18.797Z,100001.56
2024-02-13T17:30:46.331Z,100006.59
2024-02-13T17:33:14.012Z,100013.28
2024-02-13T17:35:42.154Z,100014.38
2024-02-13T17:38:10.182Z,100023.81
2024-02-13T17:40:38.249Z,100023.91
2024-02-13T17:43:06.322Z,100021.19
2024-02-13T17:45:34.372Z,100025.31
2024-02-13T17:48:01.374Z,100025.13
2024-02-13T17:50:28.666Z,100034.28
2024-02-13T17:52:56.008Z,100037.59
2024-02-13T17:55:23.946Z,100040.66
2024-02-13T17:57:50.956Z,100039.66
2024-02-13T18:00:22.860Z,100048.97
2024-02-13T18:02:51.352Z,100051.81
2024-02-13T18:05:18.878Z,100051.81
2024-02-13T18:08:07.744Z,100060.34
2024-02-13T18:10:36.675Z,100056.09
2024-02-13T18:13:10.959Z,100055.88
2024-02-13T18:15:41.524Z,100053.13
2024-02-13T18:18:11.932Z,100062.94
2024-02-13T18:20:41.990Z,100063.63
2024-02-13T18:23:09.312Z,100070.19
2024-02-13T18:25:36.900Z,100071.06
2024-02-13T18:28:04.363Z,100064.91
2024-02-13T18:30:31.596Z,100071.47
2024-02-13T18:32:58.862Z,100077.19
2024-02-13T18:35:27.898Z,100091.81
2024-02-13T18:37:54.905Z,100091.56
2024-02-13T18:40:21.993Z,100083.06
2024-02-13T18:42:48.990Z,100089.75
2024-02-13T18:45:16.974Z,100100.69
2024-02-13T18:47:45.905Z,100093.22
2024-02-13T18:50:13.027Z,100102.31
2024-02-13T18:52:40.165Z,100108.88
2024-02-13T18:55:10.897Z,100103.63
2024-02-13T18:57:39.275Z,100109.53
2024-02-13T19:00:11.278Z,100108.03
2024-02-13T19:02:40.025Z,100110.06
2024-02-13T19:05:07.841Z,100109.72
2024-02-13T19:07:48.674Z,100108.63
2024-02-13T19:10:15.858Z,100105.75
2024-02-13T19:12:43.759Z,100096.34
2024-02-13T19:15:12.986Z,100105.03
2024-02-13T19:17:40.416Z,100102.66
2024-02-13T19:20:11.181Z,100109.41
2024-02-13T19:22:39.545Z,100103.63
2024-02-13T19:25:08.037Z,100113.47
2024-02-13T19:27:38.631Z,100107.19
2024-02-13T19:30:07.075Z,100117.25
2024-02-13T19:32:43.521Z,100111.97
2024-02-13T19:35:10.610Z,100117.53
2024-02-13T19:37:38.200Z,100122.84
2024-02-13T19:40:06.497Z,100125.91
2024-02-13T19:42:45.173Z,100120.16
2024-02-13T19:45:12.078Z,100118.91
2024-02-13T19:47:51.030Z,100119.44
2024-02-13T19:50:40.017Z,100120.94
2024-02-13T19:53:26.930Z,100122.25
2024-02-13T19:56:15.462Z,100122.25
2024-02-13T19:59:02.577Z,100123.72
2024-02-13T20:01:49.586Z,100127.41
2024-02-13T20:04:36.432Z,100127.81
2024-02-13T20:07:23.213Z,100122.28
2024-02-13T20:09:50.092Z,100121.69
2024-02-13T20:12:18.476Z,100123.06
2024-02-13T20:14:49.285Z,100128.72
2024-02-13T20:17:16.279Z,100125.59
2024-02-13T20:19:43.454Z,100124.59
2024-02-13T20:22:10.368Z,100126.09
2024-02-13T20:24:38.835Z,100133.38
2024-02-13T20:27:06.035Z,100130.63
2024-02-13T20:29:33.144Z,100129.63
2024-02-13T20:32:00.260Z,100142.06
2024-02-13T20:34:30.050Z,100134.41
2024-02-13T20:37:00.140Z,100136.03
2024-02-13T20:39:27.603Z,100136.41
2024-02-13T20:41:58.103Z,100142.44
2024-02-13T20:44:26.843Z,100147.97
2024-02-13T20:46:54.370Z,100147.47
2024-02-13T20:49:23.751Z,100148.97
2024-02-13T20:51:50.667Z,100145.47
2024-02-13T20:54:17.766Z,100150.88
2024-02-13T20:56:48.598Z,100150.22
2024-02-13T20:59:18.805Z,100151.63
2024-02-13T21:01:49.199Z,100150.22
2024-02-13T21:04:16.634Z,100152.00
2024-02-13T21:06:45.096Z,100141.81
2024-02-13T21:09:13.470Z,100149.00
2024-02-13T21:11:42.182Z,100148.72
2024-02-13T21:14:09.745Z,100153.47
2024-02-13T21:16:36.844Z,100160.28
2024-02-13T21:19:04.871Z,100160.00
2024-02-13T21:22:07.219Z,100168.91
2024-02-13T21:24:36.137Z,100167.28
2024-02-13T21:27:03.447Z,100158.00
2024-02-13T21:29:30.776Z,100152.47
2024-02-13T21:31:58.581Z,100156.63
2024-02-13T21:34:29.643Z,100159.00
2024-02-13T21:36:56.751Z,100159.13
2024-02-13T21:39:25.790Z,100166.66
2024-02-13T21:41:52.968Z,100164.66
2024-02-13T21:44:19.937Z,100156.34
2024-02-13T21:46:47.826Z,100162.63
2024-02-13T21:49:15.057Z,100167.78
2024-02-13T21:51:42.092Z,100174.19
2024-02-13T21:54:09.013Z,100179.06
2024-02-13T21:56:36.256Z,100184.63
2024-02-13T21:59:03.264Z,100182.63
2024-02-13T22:01:30.300Z,100191.66
2024-02-13T22:03:58.319Z,100193.91
2024-02-13T22:06:26.854Z,100184.38
2024-02-13T22:08:54.038Z,100185.84
2024-02-13T22:11:21.257Z,100188.34
2024-02-13T22:13:48.149Z,100185.38
2024-02-13T22:16:15.055Z,100182.31
2024-02-13T22:18:42.690Z,100185.22
2024-02-13T22:21:09.763Z,100188.75
2024-02-13T22:23:36.799Z,100192.13
2024-02-13T22:26:03.760Z,100188.09
2024-02-13T22:28:30.846Z,100183.09
2024-02-13T22:30:58.011Z,100179.84
2024-02-13T22:33:33.295Z,100191.38
2024-02-13T22:36:00.616Z,100186.09
2024-02-13T22:38:27.832Z,100187.34
2024-02-13T22:40:54.781Z,100197.50
2024-02-13T22:43:22.090Z,100208.19
2024-02-13T22:45:48.975Z,100207.91
2024-02-13T22:48:16.281Z,100203.63
2024-02-13T22:50:43.302Z,100203.38
2024-02-13T22:53:10.275Z,100204.84
2024-02-13T22:55:38.280Z,100211.38
2024-02-13T22:58:05.343Z,100213.28
2024-02-13T23:00:50.551Z,100209.63
2024-02-13T23:03:18.535Z,100206.13
2024-02-13T23:05:48.207Z,100219.13
2024-02-13T23:08:16.914Z,100222.75
2024-02-13T23:10:44.312Z,100222.41
2024-02-13T23:13:13.758Z,100218.97
2024-02-13T23:15:41.420Z,100229.16
2024-02-13T23:18:13.208Z,100226.06
2024-02-13T23:20:41.359Z,100227.19
2024-02-13T23:23:10.055Z,100226.19
2024-02-13T23:25:37.560Z,100227.66
2024-02-13T23:28:14.032Z,100230.94
2024-02-13T23:30:44.408Z,100232.66
2024-02-13T23:33:12.275Z,100238.81
2024-02-13T23:35:39.631Z,100234.16
2024-02-13T23:38:09.367Z,100234.81
2024-02-13T23:40:37.313Z,100230.38
2024-02-13T23:43:04.636Z,100226.66
2024-02-13T23:45:31.505Z,100234.16
2024-02-13T23:47:58.785Z,100235.53
2024-02-13T23:50:25.987Z,100236.66
2024-02-13T23:52:54.160Z,100239.91
2024-02-13T23:55:22.065Z,100239.16
2024-02-13T23:57:52.338Z,100236.25
